createdAt,value
2019-01-13T00:04:47.288Z,5.20
2019-01-13T00:07:17.502Z,4.50
2019-01-13T00:09:47.664Z,5.00
2019-01-13T00:12:17.842Z,4.70
2019-01-13T00:14:48.076Z,5.00
2019-01-13T00:19:47.906Z,5.20
2019-01-13T00:22:18.364Z,4.90
2019-01-13T00:27:18.427Z,4.80
2019-01-13T00:29:48.442Z,5.10
2019-01-13T00:32:18.629Z,4.80
2019-01-13T00:34:48.848Z,5.00
2019-01-13T00:39:48.521Z,4.90
2019-01-13T00:44:49.558Z,5.00
2019-01-13T00:47:19.651Z,5.00
2019-01-13T00:49:50.058Z,4.50
2019-01-13T00:52:20.262Z,4.50
2019-01-13T00:57:20.390Z,4.90
2019-01-13T00:59:51.120Z,4.70
2019-01-13T01:02:21.215Z,4.90
2019-01-13T01:04:51.629Z,4.80
2019-01-13T01:07:21.975Z,5.40
2019-01-13T01:09:52.106Z,5.00
2019-01-13T01:14:52.162Z,4.90
2019-01-13T01:17:22.265Z,4.90
2019-01-13T01:22:21.937Z,5.10
2019-01-13T01:27:21.892Z,5.10
2019-01-13T01:29:52.063Z,5.10
2019-01-13T01:32:22.134Z,5.20
2019-01-13T01:34:52.175Z,4.80
2019-01-13T01:37:22.663Z,5.00
2019-01-13T01:39:52.894Z,5.50
2019-01-13T01:42:23.680Z,4.70
2019-01-13T01:44:53.847Z,4.60
2019-01-13T01:47:25.694Z,5.00
2019-01-13T01:52:25.472Z,5.10
2019-01-13T01:54:55.692Z,5.10
2019-01-13T01:57:25.749Z,4.60
2019-01-13T02:07:24.978Z,5.00
2019-01-13T02:12:27.846Z,5.20
2019-01-13T02:17:27.259Z,8.10
2019-01-13T02:24:56.602Z,5.10
2019-01-13T02:32:26.566Z,5.30
2019-01-13T02:34:56.642Z,5.30
2019-01-13T02:37:26.863Z,5.20
2019-01-13T02:39:57.039Z,5.10
2019-01-13T02:44:56.867Z,4.70
2019-01-13T02:47:26.936Z,5.00
2019-01-13T02:49:57.273Z,5.10
2019-01-13T02:54:56.878Z,4.90
2019-01-13T02:57:27.078Z,5.10
2019-01-13T02:59:57.254Z,5.40
2019-01-13T03:02:27.721Z,4.90
2019-01-13T03:04:58.682Z,4.80
2019-01-13T03:07:28.781Z,4.80
2019-01-13T03:09:59.221Z,5.10
2019-01-13T03:12:29.295Z,4.90
2019-01-13T03:14:59.407Z,5.00
2019-01-13T03:17:29.838Z,5.10
2019-01-13T03:20:00.211Z,6.30
2019-01-13T03:22:30.298Z,5.00
2019-01-13T03:25:00.755Z,5.00
2019-01-13T03:32:30.077Z,5.00
2019-01-13T03:37:29.745Z,5.40
2019-01-13T03:47:28.982Z,5.60
2019-01-13T03:49:59.186Z,5.60
2019-01-13T03:54:59.011Z,5.10
2019-01-13T03:57:29.189Z,5.20
2019-01-13T03:59:59.232Z,5.30
2019-01-13T04:02:29.768Z,4.80
2019-01-13T04:04:59.883Z,5.00
2019-01-13T04:07:30.443Z,5.30
2019-01-13T04:10:00.559Z,5.40
2019-01-13T04:12:31.139Z,4.80
2019-01-13T04:15:01.230Z,5.30
2019-01-13T04:20:00.826Z,5.30
2019-01-13T04:22:30.966Z,5.20
2019-01-13T04:27:30.775Z,5.20
2019-01-13T04:30:01.110Z,4.70
2019-01-13T04:32:31.686Z,5.10
2019-01-13T04:35:01.795Z,5.10
2019-01-13T04:37:32.343Z,5.40
2019-01-13T04:40:02.462Z,5.60
2019-01-13T04:42:32.594Z,4.90
2019-01-13T04:47:32.605Z,5.80
2019-01-13T04:50:02.947Z,5.30
2019-01-13T04:52:33.079Z,5.60
2019-01-13T04:55:03.176Z,4.80
2019-01-13T04:57:33.392Z,5.20
2019-01-13T05:00:03.799Z,5.00
2019-01-13T05:02:34.135Z,5.30
2019-01-13T05:05:05.484Z,2.50
2019-01-13T05:07:35.610Z,5.30
2019-01-13T05:10:08.359Z,5.40
2019-01-13T05:12:38.505Z,5.30
2019-01-13T05:15:08.868Z,4.80
2019-01-13T05:20:13.568Z,5.70
2019-01-13T05:22:44.055Z,5.40
2019-01-13T05:25:14.228Z,5.50
2019-01-13T05:27:45.767Z,5.50
2019-01-13T05:30:18.303Z,5.40
2019-01-13T05:32:48.902Z,5.20
2019-01-13T05:35:19.142Z,5.10
2019-01-13T05:40:22.164Z,5.20
2019-01-13T05:45:22.279Z,5.30
2019-01-13T05:47:52.323Z,5.20
2019-01-13T05:50:22.393Z,5.50
2019-01-13T05:52:54.283Z,5.10
2019-01-13T05:55:24.693Z,5.20
2019-01-13T05:57:55.230Z,4.90
2019-01-13T06:00:27.369Z,5.40
2019-01-13T06:05:27.237Z,5.00
2019-01-13T06:07:57.424Z,5.00
2019-01-13T06:10:28.494Z,5.20
2019-01-13T06:12:58.823Z,5.90
2019-01-13T06:15:29.325Z,5.30
2019-01-13T06:18:00.245Z,5.30
2019-01-13T06:20:31.258Z,5.70
2019-01-13T06:23:01.426Z,5.30
2019-01-13T06:25:31.489Z,6.60
2019-01-13T06:30:31.533Z,5.10
2019-01-13T06:33:01.599Z,5.70
2019-01-13T06:38:01.405Z,9.10
2019-01-13T06:40:32.901Z,5.70
2019-01-13T06:43:02.968Z,5.30
2019-01-13T06:45:33.053Z,5.60
2019-01-13T06:48:03.394Z,5.40
2019-01-13T06:50:33.491Z,5.50
2019-01-13T06:53:03.622Z,5.70
2019-01-13T06:55:34.083Z,5.60
2019-01-13T06:58:04.389Z,5.60
2019-01-13T07:05:35.790Z,5.40
2019-01-13T07:08:05.928Z,5.50
2019-01-13T07:10:36.166Z,5.50
2019-01-13T07:15:36.091Z,5.80
2019-01-13T07:18:06.317Z,5.70
2019-01-13T07:23:05.855Z,5.90
2019-01-13T07:25:36.035Z,5.60
2019-01-13T07:28:06.069Z,5.60
2019-01-13T07:30:36.122Z,6.00
2019-01-13T07:33:06.717Z,5.60
2019-01-13T07:35:36.940Z,5.60
2019-01-13T07:38:07.414Z,5.70
2019-01-13T07:40:37.883Z,6.10
2019-01-13T07:43:08.310Z,5.50
2019-01-13T07:45:38.436Z,5.50
2019-01-13T07:48:08.854Z,4.00
2019-01-13T07:50:39.361Z,5.70
2019-01-13T07:55:38.856Z,6.20
2019-01-13T08:00:38.777Z,5.90
2019-01-13T08:03:08.942Z,5.60
2019-01-13T08:05:39.511Z,8.40
2019-01-13T08:08:09.627Z,2.40
2019-01-13T08:10:40.162Z,5.70
2019-01-13T08:20:40.100Z,5.90
2019-01-13T08:23:10.311Z,4.00
2019-01-13T08:25:40.706Z,5.80
2019-01-13T08:28:11.140Z,5.90
2019-01-13T08:30:41.306Z,5.80
2019-01-13T08:33:11.610Z,6.00
2019-01-13T08:35:41.641Z,9.30
2019-01-13T08:38:12.139Z,6.20
2019-01-13T08:40:42.260Z,6.20
2019-01-13T08:43:12.324Z,6.00
2019-01-13T08:45:42.560Z,6.40
2019-01-13T08:48:13.173Z,5.80
2019-01-13T08:50:45.793Z,5.60
2019-01-13T08:55:45.467Z,6.00
2019-01-13T08:58:16.076Z,5.90
2019-01-13T09:00:46.138Z,5.90
2019-01-13T09:08:15.369Z,6.20
2019-01-13T09:10:46.002Z,6.10
2019-01-13T09:13:16.172Z,6.00
2019-01-13T09:15:46.496Z,5.70
2019-01-13T09:18:16.678Z,6.30
2019-01-13T09:20:46.888Z,6.10
2019-01-13T09:23:17.064Z,6.00
2019-01-13T09:25:47.575Z,5.80
2019-01-13T09:33:17.224Z,5.80
2019-01-13T09:35:47.474Z,5.80
2019-01-13T09:45:46.465Z,5.90
2019-01-13T09:50:47.491Z,5.80
2019-01-13T09:55:47.293Z,6.10
2019-01-13T10:00:48.216Z,5.90
2019-01-13T10:03:18.625Z,6.60
2019-01-13T10:05:48.795Z,6.20
2019-01-13T10:08:19.260Z,5.80
2019-01-13T10:10:49.376Z,6.20
2019-01-13T10:15:49.455Z,6.30
2019-01-13T10:23:19.816Z,6.30
2019-01-13T10:25:50.049Z,6.30
2019-01-13T10:28:20.563Z,6.60
2019-01-13T10:30:50.782Z,6.10
2019-01-13T10:35:50.482Z,6.10
2019-01-13T10:38:20.555Z,6.30
2019-01-13T10:40:50.955Z,6.00
2019-01-13T10:43:21.195Z,6.00
2019-01-13T10:45:51.296Z,6.20
2019-01-13T10:53:20.357Z,6.00
2019-01-13T10:55:50.470Z,6.40
2019-01-13T10:58:20.723Z,6.20
2019-01-13T11:00:50.907Z,6.00
2019-01-13T11:03:21.191Z,6.00
2019-01-13T11:08:21.227Z,8.90
2019-01-13T11:13:20.891Z,6.00
2019-01-13T11:15:51.018Z,6.10
2019-01-13T11:18:21.748Z,6.00
2019-01-13T11:23:22.068Z,6.00
2019-01-13T11:25:52.212Z,6.10
2019-01-13T11:28:22.425Z,6.20
2019-01-13T11:30:53.063Z,3.00
2019-01-13T11:33:23.325Z,6.40
2019-01-13T11:35:53.798Z,5.70
2019-01-13T11:38:23.961Z,2.80
2019-01-13T11:40:54.638Z,6.00
2019-01-13T11:43:24.944Z,5.90
2019-01-13T11:45:55.663Z,5.30
2019-01-13T11:48:25.881Z,5.80
2019-01-13T11:50:56.311Z,5.70
2019-01-13T11:53:26.503Z,5.90
2019-01-13T11:55:56.957Z,5.70
2019-01-13T12:00:56.811Z,5.70
2019-01-13T12:03:27.398Z,5.70
2019-01-13T12:05:57.637Z,5.30
2019-01-13T12:08:28.050Z,5.50
2019-01-13T12:13:27.911Z,5.30
2019-01-13T12:15:58.145Z,5.70
2019-01-13T12:23:28.397Z,5.40
2019-01-13T12:25:58.505Z,6.00
2019-01-13T12:30:58.255Z,6.00
2019-01-13T12:35:57.918Z,6.30
2019-01-13T12:43:27.717Z,6.10
2019-01-13T12:48:28.093Z,6.10
2019-01-13T12:50:58.484Z,6.10
2019-01-13T12:55:58.251Z,6.10
2019-01-13T12:58:28.436Z,6.00
2019-01-13T13:00:58.764Z,6.30
2019-01-13T13:03:31.881Z,6.30
2019-01-13T13:08:31.245Z,5.60
2019-01-13T13:11:01.587Z,7.90
2019-01-13T13:26:00.563Z,9.10
2019-01-13T13:28:30.654Z,5.80
2019-01-13T13:33:38.570Z,6.40
2019-01-13T13:36:05.731Z,6.30
2019-01-13T13:38:35.943Z,6.30
2019-01-13T13:41:06.204Z,5.60
2019-01-13T13:43:34.801Z,3.40
2019-01-13T13:48:35.287Z,6.10
2019-01-13T13:51:05.555Z,5.20
2019-01-13T13:53:35.803Z,6.70
2019-01-13T14:01:07.156Z,6.50
2019-01-13T14:03:37.345Z,6.90
2019-01-13T14:11:08.042Z,6.30
2019-01-13T14:16:07.767Z,6.30
2019-01-13T14:23:37.639Z,6.50
2019-01-13T14:26:07.918Z,6.40
2019-01-13T14:28:38.338Z,6.80
2019-01-13T14:31:08.839Z,6.70
2019-01-13T14:33:39.502Z,6.40
2019-01-13T14:38:39.459Z,6.90
2019-01-13T14:43:39.226Z,6.70
2019-01-13T14:48:39.282Z,7.00
2019-01-13T14:51:09.495Z,7.00
2019-01-13T14:53:39.758Z,6.80
2019-01-13T14:56:09.955Z,7.10
2019-01-13T15:08:39.177Z,7.20
2019-01-13T15:16:10.257Z,7.20
2019-01-13T15:18:40.526Z,7.40
2019-01-13T15:26:10.349Z,7.30
2019-01-13T15:33:41.311Z,4.30
2019-01-13T15:36:11.630Z,7.50
2019-01-13T15:38:41.931Z,7.20
2019-01-13T15:41:13.835Z,8.20
2019-01-13T15:46:13.751Z,7.80
2019-01-13T15:51:15.349Z,8.10
2019-01-13T15:53:45.928Z,7.80
2019-01-13T15:56:16.171Z,7.80
2019-01-13T16:06:15.718Z,7.80
2019-01-13T16:13:45.854Z,8.00
2019-01-13T16:16:16.647Z,8.10
2019-01-13T16:23:49.122Z,7.70
2019-01-13T16:33:49.416Z,7.80
2019-01-13T16:36:20.014Z,8.10
2019-01-13T16:41:20.086Z,7.90
2019-01-13T16:46:19.783Z,8.60
2019-01-13T16:51:22.304Z,8.10
2019-01-13T16:56:22.447Z,7.90
2019-01-13T16:58:54.376Z,7.90
2019-01-13T17:01:24.582Z,10.90
2019-01-13T17:03:55.751Z,7.50
2019-01-13T17:08:55.627Z,7.90
2019-01-13T17:13:57.244Z,7.70
2019-01-13T17:23:58.137Z,7.70
2019-01-13T17:26:28.386Z,7.90
2019-01-13T17:31:29.347Z,8.00
2019-01-13T17:36:29.428Z,7.80
2019-01-13T17:41:29.170Z,7.70
2019-01-13T17:43:59.732Z,8.00
2019-01-13T17:46:30.196Z,7.90
2019-01-13T17:49:00.319Z,8.00
2019-01-13T17:54:00.455Z,8.00
2019-01-13T17:56:30.867Z,8.00
2019-01-13T18:01:37.741Z,8.00
2019-01-13T18:04:07.911Z,8.00
2019-01-13T18:06:37.973Z,8.10
2019-01-13T18:09:09.198Z,8.00
2019-01-13T18:11:40.332Z,7.90
2019-01-13T18:14:10.631Z,7.80
2019-01-13T18:16:40.951Z,7.90
2019-01-13T18:19:11.203Z,7.90
2019-01-13T18:24:11.224Z,8.00
2019-01-13T18:26:42.454Z,7.80
2019-01-13T18:29:12.805Z,7.90
2019-01-13T18:31:43.486Z,7.90
2019-01-13T18:34:13.654Z,6.20
2019-01-13T18:39:13.638Z,8.20
2019-01-13T18:44:13.714Z,8.00
2019-01-13T18:49:13.520Z,8.00
2019-01-13T18:56:43.261Z,8.00
2019-01-13T19:01:43.039Z,6.20
2019-01-13T19:04:13.495Z,8.10
2019-01-13T19:06:44.306Z,7.60
2019-01-13T19:09:17.069Z,8.00
2019-01-13T19:12:01.436Z,8.00
2019-01-13T19:14:58.293Z,7.90
2019-01-13T19:17:28.885Z,7.60
2019-01-13T19:20:16.824Z,7.90
2019-01-13T19:22:49.086Z,9.90
2019-01-13T19:25:25.020Z,7.70
2019-01-13T19:30:25.559Z,7.90
2019-01-13T19:32:55.765Z,7.80
2019-01-13T19:35:25.978Z,7.90
2019-01-13T19:37:56.885Z,8.00
2019-01-13T19:40:27.236Z,7.70
2019-01-13T19:50:29.289Z,8.00
2019-01-13T19:53:00.505Z,8.00
2019-01-13T19:55:31.507Z,8.60
2019-01-13T19:58:03.511Z,8.50
2019-01-13T20:10:37.389Z,5.00
2019-01-13T20:20:36.641Z,8.40
2019-01-13T20:25:36.900Z,7.70
2019-01-13T20:28:07.670Z,6.10
2019-01-13T20:30:38.038Z,7.70
2019-01-13T20:33:08.478Z,8.30
2019-01-13T20:35:38.815Z,8.00
2019-01-13T20:38:08.965Z,8.10
2019-01-13T20:40:43.899Z,8.00
2019-01-13T20:43:17.401Z,7.90
2019-01-13T20:53:24.500Z,8.00
2019-01-13T20:58:27.001Z,8.10
2019-01-13T21:03:26.977Z,8.10
2019-01-13T21:05:57.204Z,7.40
2019-01-13T21:08:27.494Z,7.90
2019-01-13T21:10:59.178Z,7.80
2019-01-13T21:13:30.550Z,7.60
2019-01-13T21:18:31.202Z,8.30
2019-01-13T21:21:01.333Z,8.10
2019-01-13T21:23:32.010Z,7.60
2019-01-13T21:26:02.357Z,8.20
2019-01-13T21:28:33.058Z,8.60
2019-01-13T21:31:03.262Z,6.70
2019-01-13T21:33:33.948Z,7.90
2019-01-13T21:36:04.294Z,8.00
2019-01-13T21:38:34.660Z,8.10
2019-01-13T21:41:04.955Z,8.10
2019-01-13T21:46:05.036Z,7.90
2019-01-13T21:51:05.024Z,7.80
2019-01-13T21:53:35.397Z,8.10
2019-01-13T21:56:05.811Z,10.70
2019-01-13T21:58:36.447Z,8.20
2019-01-13T22:01:07.810Z,7.60
2019-01-13T22:03:39.859Z,8.40
2019-01-13T22:06:10.613Z,7.60
2019-01-13T22:08:41.528Z,8.50
2019-01-13T22:11:11.849Z,8.10
2019-01-13T22:16:12.703Z,8.10
2019-01-13T22:21:12.126Z,7.80
2019-01-13T22:23:42.683Z,8.00
2019-01-13T22:26:13.276Z,7.80
2019-01-13T22:28:43.474Z,8.00
2019-01-13T22:33:43.386Z,8.20
2019-01-13T22:38:43.009Z,8.80
2019-01-13T22:41:16.262Z,8.40
2019-01-13T22:46:16.800Z,8.60
2019-01-13T22:48:47.074Z,8.40
2019-01-13T22:51:17.209Z,8.50
2019-01-13T22:53:47.363Z,8.90
2019-01-13T22:56:17.776Z,8.30
2019-01-13T22:58:49.351Z,8.60
2019-01-13T23:01:34.859Z,8.50
2019-01-13T23:04:12.799Z,8.50
2019-01-13T23:06:42.927Z,8.50
2019-01-13T23:11:42.955Z,8.60
2019-01-13T23:14:14.851Z,8.50
2019-01-13T23:16:44.906Z,8.50
2019-01-13T23:19:15.657Z,8.30
2019-01-13T23:21:46.839Z,8.50
2019-01-13T23:24:17.737Z,8.40
2019-01-13T23:26:47.823Z,8.70
2019-01-13T23:29:18.225Z,7.80
2019-01-13T23:31:48.417Z,8.30
2019-01-13T23:34:19.897Z,8.20
2019-01-13T23:44:21.424Z,7.90
2019-01-13T23:46:51.610Z,8.70
2019-01-13T23:49:22.163Z,8.00
2019-01-13T23:51:52.523Z,7.90
2019-01-13T23:54:24.025Z,8.00
2019-01-13T23:56:54.342Z,8.00
2019-01-13T23:59:24.743Z,8.10
